Time;durP1;ratioP1;P1;durP2;ratioP2;P2;SDS_P1;SDS_P2;PMS_P1;PMS_P2;Temp;Humidity;BMP_temperature;BMP_pressure;BME280_temperature;BME280_humidity;BME280_pressure;Samples;Min_cycle;Max_cycle;Signal;HPM_P1;HPM_P2
2023/10/13 00:01:52;;;;;;;0.10;0.10;;;;;;;13.28;63.47;101658.03;5032400;28;20117;-86
2023/10/13 00:04:22;;;;;;;0.10;0.10;;;;;;;13.16;63.90;101656.75;5032678;28;20064;-86
2023/10/13 00:06:48;;;;;;;0.10;0.10;;;;;;;13.06;63.91;101651.09;5016888;28;20059;-86
2023/10/13 00:09:14;;;;;;;0.10;0.10;;;;;;;13.01;64.80;101655.66;5032190;28;20025;-86
2023/10/13 00:11:46;;;;;;;0.10;0.10;;;;;;;12.93;64.66;101643.00;5048366;28;20414;-86
2023/10/13 00:14:16;;;;;;;0.10;0.10;;;;;;;12.96;64.66;101646.38;5032499;28;20029;-86
2023/10/13 00:16:42;;;;;;;0.10;0.10;;;;;;;12.96;64.89;101646.38;5016453;28;20128;-86
2023/10/13 00:19:10;;;;;;;0.10;0.10;;;;;;;12.83;64.80;101626.13;5031977;28;20025;-86
2023/10/13 00:21:35;;;;;;;0.10;0.10;;;;;;;12.85;64.99;101628.66;5036306;28;20033;-86
2023/10/13 00:24:01;;;;;;;0.20;0.20;;;;;;;12.88;64.44;101638.88;5035926;28;20044;-86
2023/10/13 00:26:28;;;;;;;0.10;0.10;;;;;;;12.78;64.64;101638.47;5035086;28;20124;-85
2023/10/13 00:31:36;;;;;;;0.10;0.10;;;;;;;12.77;65.31;101646.28;5036975;28;20029;-86
2023/10/13 00:34:09;;;;;;;0.10;0.10;;;;;;;12.64;65.55;101641.63;5035870;28;20051;-87
2023/10/13 00:36:35;;;;;;;0.10;0.10;;;;;;;12.79;65.27;101645.34;5051927;28;20033;-86
2023/10/13 00:39:01;;;;;;;0.10;0.10;;;;;;;12.67;65.02;101632.84;5018927;28;20036;-86
2023/10/13 00:44:10;;;;;;;0.10;0.10;;;;;;;12.73;65.04;101635.19;5051800;28;20071;-86
2023/10/13 00:46:37;;;;;;;0.10;0.10;;;;;;;12.66;64.71;101623.38;5035183;28;20052;-86
2023/10/13 00:49:04;;;;;;;0.10;0.10;;;;;;;12.80;64.84;101638.41;5035394;28;20039;-86
2023/10/13 00:51:34;;;;;;;0.10;0.10;;;;;;;12.66;64.87;101620.78;5035244;28;20025;-86
2023/10/13 00:54:11;;;;;;;0.10;0.10;;;;;;;12.76;64.82;101631.63;5019504;28;20029;-87
2023/10/13 00:56:46;;;;;;;0.10;0.10;;;;;;;12.60;65.37;101618.47;5036261;28;20112;-86
2023/10/13 00:59:14;;;;;;;0.10;0.10;;;;;;;12.67;65.60;101629.41;5035535;28;20112;-86
2023/10/13 01:01:42;;;;;;;0.10;0.10;;;;;;;12.74;65.17;101644.69;5051593;28;20024;-86
2023/10/13 01:04:08;;;;;;;0.10;0.10;;;;;;;12.62;65.42;101645.19;5035005;28;20090;-86
2023/10/13 01:06:37;;;;;;;0.10;0.10;;;;;;;12.61;65.69;101643.50;5035022;28;20158;-86
2023/10/13 01:09:14;;;;;;;0.10;0.10;;;;;;;12.71;65.57;101642.22;5035107;28;20033;-87
2023/10/13 01:11:44;;;;;;;0.10;0.10;;;;;;;12.66;65.38;101645.91;5019844;28;20025;-86
2023/10/13 01:14:20;;;;;;;0.10;0.10;;;;;;;12.69;65.35;101635.41;5034826;28;20407;-87
2023/10/13 01:16:46;;;;;;;0.10;0.10;;;;;;;12.64;65.64;101640.78;5035818;28;20020;-86
2023/10/13 01:19:19;;;;;;;0.20;0.20;;;;;;;12.53;65.65;101622.22;5034710;28;20509;-85
2023/10/13 01:21:50;;;;;;;0.10;0.10;;;;;;;12.62;65.28;101638.25;5035672;28;20521;-87
2023/10/13 01:24:20;;;;;;;0.10;0.10;;;;;;;12.54;65.94;101635.13;5035019;28;20029;-86
2023/10/13 01:26:51;;;;;;;0.10;0.10;;;;;;;12.63;65.94;101641.69;5035740;28;20406;-86
2023/10/13 01:29:18;;;;;;;0.10;0.10;;;;;;;12.53;65.89;101638.63;5050854;28;20051;-86
2023/10/13 01:31:47;;;;;;;0.10;0.10;;;;;;;12.48;66.22;101652.69;5034539;28;20033;-87
2023/10/13 01:34:21;;;;;;;0.10;0.10;;;;;;;12.44;66.29;101649.38;5034669;28;20033;-85
2023/10/13 01:36:54;;;;;;;0.10;0.10;;;;;;;12.42;66.16;101634.78;5035131;28;20029;-86
2023/10/13 01:39:20;;;;;;;;;;;;;;;12.48;66.31;101650.94;5034424;28;20032;-86
2023/10/13 01:41:46;;;;;;;0.10;0.10;;;;;;;12.21;67.37;101658.09;5034174;28;20302;-87
2023/10/13 01:44:11;;;;;;;0.10;0.10;;;;;;;12.22;67.01;101651.16;5034109;28;20056;-87
2023/10/13 01:46:38;;;;;;;0.10;0.10;;;;;;;12.25;67.05;101654.44;5034165;28;20033;-86
2023/10/13 01:49:03;;;;;;;0.10;0.10;;;;;;;12.23;66.92;101645.91;5033971;28;20029;-86
2023/10/13 01:51:29;;;;;;;0.10;0.10;;;;;;;12.17;66.77;101643.53;5033971;28;20414;-87
2023/10/13 01:53:57;;;;;;;0.10;0.10;;;;;;;12.25;66.99;101654.44;5051137;28;20033;-86
2023/10/13 01:56:23;;;;;;;0.10;0.10;;;;;;;12.21;67.21;101652.06;5050654;28;20028;-86
2023/10/13 01:58:49;;;;;;;0.10;0.10;;;;;;;12.23;66.92;101643.31;5033823;28;20063;-85
2023/10/13 02:01:26;;;;;;;0.10;0.10;;;;;;;12.20;67.02;101645.19;5033879;28;20064;-86
2023/10/13 02:04:04;;;;;;;0.10;0.10;;;;;;;12.23;67.29;101639.88;5035142;28;20487;-87
2023/10/13 02:06:33;;;;;;;0.15;0.15;;;;;;;12.14;66.74;101622.06;5019834;28;20068;-86
2023/10/13 02:09:17;;;;;;;0.10;0.10;;;;;;;11.96;66.91;101600.28;5034475;28;20020;-86
2023/10/13 02:11:47;;;;;;;0.17;0.17;;;;;;;12.12;67.07;101629.91;5050155;28;20028;-86
2023/10/13 02:14:16;;;;;;;0.10;0.10;;;;;;;12.15;66.83;101624.59;5033721;28;20039;-86
2023/10/13 02:16:41;;;;;;;0.10;0.10;;;;;;;12.07;67.34;101614.50;5034282;28;20104;-86
2023/10/13 02:19:15;;;;;;;0.10;0.10;;;;;;;12.20;67.19;101614.06;5033556;28;20032;-85
2023/10/13 02:21:43;;;;;;;0.10;0.10;;;;;;;12.12;67.23;101601.38;5034352;28;20021;-86
2023/10/13 02:24:18;;;;;;;0.10;0.10;;;;;;;11.99;67.19;101589.78;5033572;28;20029;-86
2023/10/13 02:26:46;;;;;;;0.10;0.10;;;;;;;12.14;67.75;101617.72;5050072;28;20071;-86
2023/10/13 02:29:17;;;;;;;0.10;0.10;;;;;;;12.16;67.68;101607.28;5049861;28;20116;-86
2023/10/13 02:31:53;;;;;;;0.10;0.10;;;;;;;12.16;68.08;101618.50;5033966;28;20116;-87
2023/10/13 02:34:18;;;;;;;0.10;0.10;;;;;;;12.20;67.90;101614.91;5034791;28;20430;-86
2023/10/13 02:36:48;;;;;;;0.10;0.10;;;;;;;12.21;68.23;101616.59;5049190;28;20502;-87
2023/10/13 02:39:24;;;;;;;0.20;0.20;;;;;;;12.14;68.90;101614.28;5033708;28;20623;-86
2023/10/13 02:41:49;;;;;;;0.10;0.10;;;;;;;12.17;68.95;101615.00;5034718;28;20048;-87
2023/10/13 02:44:28;;;;;;;0.10;0.10;;;;;;;12.25;69.01;101636.28;5032822;28;20029;-86
2023/10/13 02:46:57;;;;;;;0.10;0.10;;;;;;;12.28;68.94;101638.75;5049776;28;20039;-86
2023/10/13 02:49:25;;;;;;;0.10;0.10;;;;;;;12.23;69.50;101642.47;5016617;28;20179;-86
2023/10/13 02:51:52;;;;;;;0.10;0.10;;;;;;;12.24;69.19;101644.16;5033322;28;20398;-84
2023/10/13 02:54:18;;;;;;;0.10;0.10;;;;;;;12.29;68.20;101640.47;5032848;28;20048;-84
2023/10/13 02:56:49;;;;;;;0.10;0.10;;;;;;;12.45;67.36;101647.63;5032996;28;20482;-84
2023/10/13 02:59:15;;;;;;;0.10;0.10;;;;;;;12.40;67.32;101636.59;5034066;28;20083;-85
2023/10/13 03:01:40;;;;;;;0.10;0.10;;;;;;;12.43;67.15;101637.31;5033165;28;20029;-85
2023/10/13 03:04:08;;;;;;;0.20;0.15;;;;;;;12.28;67.39;101643.94;5032838;28;20037;-84
2023/10/13 03:06:34;;;;;;;0.10;0.10;;;;;;;12.21;67.31;101646.88;5033057;28;20032;-85
2023/10/13 03:09:19;;;;;;;0.10;0.10;;;;;;;12.33;66.76;101642.03;5032918;28;20021;-85
2023/10/13 03:11:50;;;;;;;0.10;0.10;;;;;;;12.40;66.67;101657.38;5037105;28;20025;-84
2023/10/13 03:17:02;;;;;;;0.20;0.20;;;;;;;12.23;66.89;101645.91;5049372;28;20279;-85
2023/10/13 03:19:32;;;;;;;0.10;0.10;;;;;;;12.31;66.52;101649.03;5034237;28;20029;-85
2023/10/13 03:22:09;;;;;;;0.20;0.20;;;;;;;12.11;66.85;101636.00;5033826;28;20021;-85
2023/10/13 03:24:35;;;;;;;0.10;0.10;;;;;;;12.15;66.99;101650.53;5034220;28;20021;-85
2023/10/13 03:27:09;;;;;;;0.20;0.20;;;;;;;12.20;67.24;101651.22;5050675;28;20029;-85
2023/10/13 03:29:42;;;;;;;0.10;0.10;;;;;;;12.27;67.69;101668.19;5033487;28;20029;-83
2023/10/13 03:32:17;;;;;;;0.10;0.10;;;;;;;12.29;67.02;101645.66;5002583;28;20058;-85
2023/10/13 03:35:11;;;;;;;0.10;0.10;;;;;;;12.33;67.02;101667.97;5028225;28;20036;-85
2023/10/13 03:37:39;;;;;;;0.10;0.10;;;;;;;12.26;67.14;101650.94;5029133;28;20024;-86
2023/10/13 03:40:34;;;;;;;0.10;0.10;;;;;;;12.10;67.35;101647.28;5028900;28;20075;-85
2023/10/13 03:43:04;;;;;;;0.10;0.10;;;;;;;12.22;67.42;101653.75;5015436;28;20471;-84
2023/10/13 03:45:41;;;;;;;0.10;0.10;;;;;;;12.11;67.79;101648.13;5013392;28;20120;-85
2023/10/13 03:48:11;;;;;;;0.10;0.10;;;;;;;12.04;68.34;101658.72;5029763;28;20061;-85
2023/10/13 03:50:46;;;;;;;0.10;0.10;;;;;;;12.01;68.27;101645.06;5028173;28;20038;-85
2023/10/13 03:53:13;;;;;;;0.10;0.10;;;;;;;12.18;67.44;101658.19;5013227;28;20048;-85
2023/10/13 03:55:39;;;;;;;0.10;0.10;;;;;;;12.04;67.73;101652.69;5014583;28;20490;-85
2023/10/13 03:58:04;;;;;;;0.10;0.10;;;;;;;11.90;68.09;101642.88;5032410;28;20028;-85
2023/10/13 04:00:31;;;;;;;0.10;0.10;;;;;;;11.96;68.46;101653.00;5015634;28;20432;-85
2023/10/13 04:05:41;;;;;;;0.10;0.10;;;;;;;11.84;68.78;101634.47;5017092;28;20037;-86
2023/10/13 04:21:57;;;;;;;0.10;0.10;;;;;;;11.61;69.61;101599.88;5038722;28;20510;-91
2023/10/13 04:32:32;;;;;;;0.20;0.20;;;;;;;11.74;70.38;101641.72;5038826;28;20056;-90
2023/10/13 04:35:09;;;;;;;0.10;0.10;;;;;;;11.77;70.33;101642.44;5053866;28;20119;-90
2023/10/13 04:37:50;;;;;;;0.10;0.10;;;;;;;11.66;71.13;101629.03;5021430;28;20091;-87
2023/10/13 04:40:19;;;;;;;0.10;0.10;;;;;;;11.72;71.06;101641.78;5052053;28;20029;-89
2023/10/13 04:42:50;;;;;;;0.10;0.10;;;;;;;11.66;71.29;101646.34;5035239;28;20107;-87
2023/10/13 04:48:27;;;;;;;0.10;0.10;;;;;;;11.76;71.56;101656.31;5037619;28;20033;-92
2023/10/13 04:51:21;;;;;;;0.10;0.10;;;;;;;11.77;71.45;101658.00;5028057;28;20047;-92
2023/10/13 04:54:00;;;;;;;0.10;0.10;;;;;;;11.71;71.15;101645.28;5067636;28;21322;-84
2023/10/13 04:56:59;;;;;;;0.10;0.10;;;;;;;11.66;71.48;101652.38;5074317;28;21222;-87
2023/10/13 05:00:43;;;;;;;0.10;0.10;;;;;;;11.68;72.07;101660.09;5041546;28;20866;-92
2023/10/13 05:03:01;;;;;;;0.20;0.20;;;;;;;11.72;71.80;101672.88;5074043;28;20087;-89
2023/10/13 06:29:53;;;;;;;0.10;0.10;;;;;;;13.47;73.65;101748.13;5057875;28;20039;-87
2023/10/13 06:32:25;;;;;;;0.10;0.10;;;;;;;13.31;73.04;101728.03;5053668;28;20115;-94
2023/10/13 06:34:57;;;;;;;0.10;0.10;;;;;;;13.32;74.27;101768.72;5070809;28;20033;-90
2023/10/13 06:37:30;;;;;;;0.10;0.10;;;;;;;13.26;74.59;101767.22;5054077;28;20090;-90
2023/10/13 06:39:56;;;;;;;0.10;0.10;;;;;;;13.28;74.43;101767.16;5059990;28;20115;-86
2023/10/13 06:42:28;;;;;;;0.10;0.10;;;;;;;13.39;73.76;101771.00;5055849;28;20064;-84
2023/10/13 06:44:54;;;;;;;0.10;0.10;;;;;;;13.59;73.33;101764.94;5069280;28;20591;-90
2023/10/13 06:47:24;;;;;;;0.10;0.10;;;;;;;13.59;72.73;101761.50;5075450;28;20402;-90
2023/10/13 06:49:51;;;;;;;0.13;0.13;;;;;;;13.60;72.29;101752.78;5031493;28;20127;-92
2023/10/13 06:52:22;;;;;;;0.10;0.10;;;;;;;13.64;71.80;101725.72;5033289;28;20056;-87
2023/10/13 06:54:53;;;;;;;0.10;0.10;;;;;;;13.62;72.10;101704.16;5070401;28;20524;-88
2023/10/13 06:57:21;;;;;;;0.10;0.10;;;;;;;13.88;72.46;101748.06;5051942;28;20098;-87
2023/10/13 06:59:47;;;;;;;0.10;0.10;;;;;;;13.89;71.82;101723.72;5068486;28;20509;-88
2023/10/13 07:02:22;;;;;;;0.10;0.10;;;;;;;14.14;71.09;101738.22;5054021;28;20125;-90
2023/10/13 07:04:48;;;;;;;0.10;0.10;;;;;;;14.29;69.96;101760.94;5083133;28;20031;-90
2023/10/13 07:07:15;;;;;;;0.10;0.10;;;;;;;14.37;70.34;101760.59;5051284;28;20056;-89
2023/10/13 07:09:55;;;;;;;0.10;0.10;;;;;;;14.50;69.50;101756.50;5073256;28;20056;-88
2023/10/13 07:12:26;;;;;;;0.10;0.10;;;;;;;14.55;69.03;101754.53;5069687;28;20044;-90
2023/10/13 07:14:51;;;;;;;0.10;0.10;;;;;;;14.62;69.03;101748.94;5056808;28;20391;-88
2023/10/13 07:17:23;;;;;;;0.20;0.20;;;;;;;14.85;68.76;101757.44;5065312;28;20031;-85
2023/10/13 07:20:04;;;;;;;0.20;0.20;;;;;;;14.85;68.36;101754.84;5055167;28;20120;-89
2023/10/13 07:22:39;;;;;;;0.10;0.10;;;;;;;14.85;68.08;101750.47;5040407;28;20691;-87
2023/10/13 07:25:06;;;;;;;0.10;0.10;;;;;;;14.93;67.92;101760.47;5063859;28;20052;-86
2023/10/13 07:27:35;;;;;;;0.10;0.10;;;;;;;15.12;67.61;101766.47;5051289;28;20036;-91
2023/10/13 07:30:14;;;;;;;0.10;0.10;;;;;;;15.12;67.22;101763.88;5053217;28;20112;-91
2023/10/13 07:32:45;;;;;;;0.10;0.10;;;;;;;15.05;67.26;101764.28;5069431;28;20060;-91
2023/10/13 07:35:12;;;;;;;0.10;0.10;;;;;;;15.04;67.47;101752.13;5058982;28;20115;-85
2023/10/13 07:37:41;;;;;;;0.10;0.10;;;;;;;15.23;66.85;101757.28;5053805;28;20094;-90
2023/10/13 07:40:39;;;;;;;0.10;0.10;;;;;;;15.35;65.79;101756.69;5063996;28;20067;-93
2023/10/13 07:45:58;;;;;;;0.20;0.20;;;;;;;15.38;65.49;101717.41;5043046;28;20561;-86
2023/10/13 07:48:25;;;;;;;0.10;0.10;;;;;;;15.76;64.80;101751.97;5068156;28;20107;-88
2023/10/13 07:51:02;;;;;;;0.20;0.20;;;;;;;15.90;64.44;101746.00;5081414;28;20051;-92
2023/10/13 07:53:34;;;;;;;0.10;0.10;;;;;;;16.08;63.07;101750.22;5058884;28;20059;-91
2023/10/13 07:56:04;;;;;;;0.10;0.10;;;;;;;16.21;62.75;101756.47;5041559;28;20041;-93
2023/10/13 07:58:31;;;;;;;0.10;0.10;;;;;;;16.31;62.11;101748.97;5053506;28;20036;-92
2023/10/13 08:03:44;;;;;;;0.10;0.10;;;;;;;16.45;61.62;101750.84;5057351;28;20547;-91
2023/10/13 08:08:38;;;;;;;0.17;0.17;;;;;;;16.72;59.71;101748.47;5075288;28;20112;-90
2023/10/13 08:11:30;;;;;;;0.10;0.10;;;;;;;16.90;59.77;101752.63;5071483;28;20064;-91
2023/10/13 08:19:17;;;;;;;0.15;0.15;;;;;;;17.15;58.39;101757.28;5070133;28;20504;-91
2023/10/13 08:21:57;;;;;;;0.10;0.10;;;;;;;17.25;57.70;101753.19;5056262;28;20039;-90
2023/10/13 08:24:55;;;;;;;0.10;0.10;;;;;;;17.42;57.15;101744.34;5059383;28;20052;-94
2023/10/13 08:27:35;;;;;;;0.10;0.10;;;;;;;17.66;56.26;101747.25;5067820;28;20036;-92
2023/10/13 08:35:09;;;;;;;0.10;0.10;;;;;;;18.15;54.10;101741.63;5055620;28;20105;-91
2023/10/13 08:38:19;;;;;;;0.10;0.10;;;;;;;18.48;53.55;101747.34;5055281;28;20031;-90
2023/10/13 08:45:58;;;;;;;0.10;0.10;;;;;;;18.93;52.02;101747.94;5055107;28;20041;-95
2023/10/13 08:48:31;;;;;;;0.10;0.10;;;;;;;19.13;52.50;101752.69;5069857;28;20090;-88
2023/10/13 08:51:03;;;;;;;0.20;0.20;;;;;;;19.29;51.42;101764.81;5050728;28;20043;-84
2023/10/13 08:59:09;;;;;;;0.10;0.10;;;;;;;19.29;50.30;101717.56;5054514;28;20032;-91
2023/10/13 09:04:22;;;;;;;0.10;0.10;;;;;;;19.74;49.18;101743.28;5056154;28;20043;-90
2023/10/13 09:09:34;;;;;;;0.20;0.20;;;;;;;20.06;48.48;101750.72;5069632;28;20111;-94
2023/10/13 09:12:09;;;;;;;0.10;0.10;;;;;;;20.16;48.70;101725.47;5057919;28;20044;-89
2023/10/13 09:14:42;;;;;;;0.10;0.10;;;;;;;20.43;47.74;101737.56;5052583;28;20029;-89
2023/10/13 09:17:09;;;;;;;0.10;0.10;;;;;;;20.57;47.46;101729.53;5057142;28;20036;-91
2023/10/13 09:19:55;;;;;;;0.10;0.10;;;;;;;20.82;48.72;101728.53;5071871;28;20033;-92
2023/10/13 09:22:27;;;;;;;0.10;0.10;;;;;;;20.85;46.37;101728.31;5070993;28;20029;-94
2023/10/13 09:25:00;;;;;;;0.10;0.10;;;;;;;20.59;46.60;101706.59;5053848;28;20098;-90
2023/10/13 09:27:32;;;;;;;0.10;0.10;;;;;;;20.49;47.10;101714.31;5071815;28;20055;-88
2023/10/13 09:32:48;;;;;;;0.75;0.20;;;;;;;20.68;47.33;101715.56;5067232;28;20524;-89
2023/10/13 09:35:18;;;;;;;0.10;0.10;;;;;;;20.69;47.78;101717.25;5057656;28;20035;-92
2023/10/13 09:37:47;;;;;;;0.10;0.10;;;;;;;20.83;46.69;101710.00;5046979;28;20056;-92
2023/10/13 09:43:18;;;;;;;0.10;0.10;;;;;;;21.45;46.17;101725.47;5052009;28;20049;-90
2023/10/13 09:48:35;;;;;;;0.10;0.10;;;;;;;21.85;45.23;101722.34;5065027;28;20036;-93
2023/10/13 09:51:09;;;;;;;0.10;0.10;;;;;;;22.03;44.48;101728.78;5030242;28;20032;-92
2023/10/13 09:53:37;;;;;;;0.10;0.10;;;;;;;22.22;44.35;101724.69;5018566;28;20075;-89
2023/10/13 09:56:12;;;;;;;0.10;0.10;;;;;;;22.32;44.92;101701.94;5059192;28;20490;-88
2023/10/13 09:58:57;;;;;;;0.20;0.20;;;;;;;22.67;43.87;101730.66;5069047;28;20033;-91
2023/10/13 10:01:33;;;;;;;0.10;0.10;;;;;;;22.68;43.19;101724.41;5057946;28;20028;-93
2023/10/13 10:04:12;;;;;;;0.10;0.10;;;;;;;22.75;43.26;101719.47;5070276;28;20033;-87
2023/10/13 10:06:49;;;;;;;0.10;0.10;;;;;;;22.70;43.44;101706.66;5048653;28;20067;-89
2023/10/13 10:09:22;;;;;;;0.10;0.10;;;;;;;22.96;43.53;101714.25;5041258;28;20024;-93
2023/10/13 10:12:25;;;;;;;0.20;0.20;;;;;;;23.12;42.27;101704.06;5065909;28;20112;-93
2023/10/13 10:14:54;;;;;;;0.10;0.10;;;;;;;23.27;42.04;101705.38;5074176;28;20040;-87
2023/10/13 10:17:21;;;;;;;0.10;0.10;;;;;;;23.35;41.82;101702.09;5067317;28;20039;-89
2023/10/13 10:19:54;;;;;;;0.10;0.10;;;;;;;23.45;41.98;101701.16;5049222;28;20135;-89
2023/10/13 10:22:33;;;;;;;0.10;0.10;;;;;;;23.59;41.06;101700.00;5064334;28;20036;-91
2023/10/13 10:25:24;;;;;;;0.10;0.10;;;;;;;23.81;40.76;101698.16;5083737;28;20426;-93
2023/10/13 10:27:59;;;;;;;0.20;0.20;;;;;;;24.10;40.20;101688.47;5054339;28;20173;-87
2023/10/13 10:30:27;;;;;;;0.10;0.10;;;;;;;24.46;39.92;101686.97;5048808;28;20120;-88
2023/10/13 10:32:59;;;;;;;0.20;0.20;;;;;;;24.63;39.35;101680.13;5052838;28;20036;-88
2023/10/13 10:35:29;;;;;;;0.10;0.10;;;;;;;24.56;39.17;101658.69;5068636;28;20033;-94
2023/10/13 10:38:11;;;;;;;0.10;0.10;;;;;;;24.74;38.81;101679.97;5052121;28;20025;-88
2023/10/13 10:40:51;;;;;;;0.10;0.10;;;;;;;24.86;38.70;101670.91;5040985;28;20028;-92
2023/10/13 10:43:17;;;;;;;0.20;0.20;;;;;;;24.88;38.00;101668.13;5043028;28;20120;-89
2023/10/13 10:45:49;;;;;;;0.10;0.10;;;;;;;24.89;38.20;101669.81;5069655;28;20028;-89
2023/10/13 10:48:21;;;;;;;0.20;0.20;;;;;;;24.88;38.49;101668.13;5048644;28;20028;-91
2023/10/13 10:50:54;;;;;;;0.10;0.10;;;;;;;24.89;39.09;101665.34;5033297;28;20028;-89
2023/10/13 10:53:32;;;;;;;0.20;0.20;;;;;;;24.97;39.49;101663.78;5031977;28;20025;-88
2023/10/13 10:56:05;;;;;;;0.10;0.10;;;;;;;25.14;39.34;101660.41;5070087;28;20033;-86
2023/10/13 10:58:43;;;;;;;0.10;0.10;;;;;;;25.37;39.13;101659.09;5069973;28;20041;-90
2023/10/13 11:01:19;;;;;;;0.20;0.20;;;;;;;25.47;38.92;101643.16;5064014;28;20028;-86
2023/10/13 11:03:59;;;;;;;0.10;0.10;;;;;;;25.84;38.49;101655.50;5052305;28;20097;-93
2023/10/13 11:06:28;;;;;;;0.10;0.10;;;;;;;26.00;37.82;101640.59;5054276;28;20047;-92
2023/10/13 11:11:52;;;;;;;0.20;0.20;;;;;;;26.26;36.96;101634.53;5051608;28;20068;-87
2023/10/13 11:14:22;;;;;;;0.20;0.20;;;;;;;26.41;36.78;101627.72;5068315;28;20044;-84
2023/10/13 11:16:53;;;;;;;0.10;0.10;;;;;;;26.64;35.23;101629.88;5068232;28;20552;-85
2023/10/13 11:19:25;;;;;;;0.10;0.10;;;;;;;26.66;33.86;101630.56;5058659;28;20028;-84
2023/10/13 11:21:52;;;;;;;0.10;0.10;;;;;;;26.65;33.31;101626.25;5081498;28;20040;-89
2023/10/13 11:24:18;;;;;;;0.10;0.10;;;;;;;26.68;33.88;101612.66;5054102;28;20511;-92
2023/10/13 11:26:49;;;;;;;0.10;0.10;;;;;;;26.74;33.60;101617.31;5046740;28;20119;-94
2023/10/13 11:29:19;;;;;;;0.13;0.13;;;;;;;26.69;33.91;101627.59;5075262;28;20119;-89
2023/10/13 11:32:19;;;;;;;0.20;0.20;;;;;;;26.63;34.21;101618.41;5066908;28;20033;-91
2023/10/13 11:34:40;;;;;;;0.20;0.20;;;;;;;26.57;33.39;101613.75;5070768;28;20044;-91
2023/10/13 11:39:51;;;;;;;0.10;0.10;;;;;;;26.60;33.90;101610.78;5035787;28;20044;-88
2023/10/13 11:42:17;;;;;;;0.10;0.10;;;;;;;26.64;33.57;101611.28;5046424;28;20036;-90
2023/10/13 11:44:43;;;;;;;0.10;0.10;;;;;;;26.69;33.53;101609.00;5068275;28;20399;-88
2023/10/13 11:49:59;;;;;;;0.10;0.10;;;;;;;26.64;33.56;101596.19;5055115;28;20520;-90
2023/10/13 11:52:27;;;;;;;0.10;0.10;;;;;;;26.76;34.05;101604.75;5067451;28;20029;-89
2023/10/13 11:54:53;;;;;;;0.10;0.10;;;;;;;26.74;33.92;101601.41;5051242;28;20037;-89
2023/10/13 11:57:19;;;;;;;0.20;0.17;;;;;;;26.82;34.20;101604.09;5065604;28;20035;-95
2023/10/13 11:59:53;;;;;;;0.20;0.20;;;;;;;26.80;33.82;101595.47;5064671;28;20425;-86
2023/10/13 12:05:03;;;;;;;0.20;0.20;;;;;;;26.88;33.42;101595.53;5052366;28;20040;-91
2023/10/13 12:07:48;;;;;;;0.13;0.13;;;;;;;26.84;33.33;101588.84;5068543;28;20477;-84
2023/10/13 12:10:59;;;;;;;0.10;0.10;;;;;;;26.65;33.37;101555.41;5057378;28;20510;-85
2023/10/13 12:13:10;;;;;;;0.10;0.10;;;;;;;26.87;33.03;101585.91;5063244;28;20052;-89
2023/10/13 12:15:48;;;;;;;0.10;0.10;;;;;;;26.70;32.18;101565.56;5051486;28;20028;-84
2023/10/13 12:18:15;;;;;;;0.10;0.10;;;;;;;26.81;31.66;101582.03;5074918;28;20020;-95
2023/10/13 12:20:45;;;;;;;0.20;0.20;;;;;;;26.84;31.60;101587.06;5039964;28;20028;-89
2023/10/13 12:23:20;;;;;;;0.10;0.10;;;;;;;26.84;30.91;101587.06;5071968;28;20112;-88
2023/10/13 12:25:54;;;;;;;0.10;0.10;;;;;;;26.81;31.72;101578.53;5071181;28;20555;-88
2023/10/13 12:28:23;;;;;;;0.10;0.10;;;;;;;26.84;30.68;101588.84;5052156;28;20024;-88
2023/10/13 12:30:49;;;;;;;0.10;0.10;;;;;;;26.85;30.96;101587.88;5068049;28;20097;-87
2023/10/13 12:33:23;;;;;;;0.10;0.10;;;;;;;26.84;30.54;101586.19;5068699;28;20516;-87
2023/10/13 12:36:03;;;;;;;0.10;0.10;;;;;;;26.92;30.85;101582.75;5083503;28;20024;-85
2023/10/13 12:52:16;;;;;;;0.20;0.20;;;;;;;26.87;29.27;101583.25;5056976;28;20044;-89
2023/10/13 12:54:54;;;;;;;0.20;0.20;;;;;;;26.88;29.45;101582.25;5055653;28;20028;-86
2023/10/13 12:57:22;;;;;;;0.20;0.20;;;;;;;26.94;29.82;101586.06;5071051;28;20470;-91
2023/10/13 12:59:55;;;;;;;0.10;0.10;;;;;;;26.89;29.81;101583.91;5069520;28;20032;-85
2023/10/13 13:02:27;;;;;;;0.20;0.20;;;;;;;26.77;30.07;101578.03;5075730;28;20024;-89
2023/10/13 13:05:02;;;;;;;0.20;0.20;;;;;;;26.84;30.13;101575.56;5065339;28;20077;-86
2023/10/13 13:07:31;;;;;;;0.10;0.10;;;;;;;26.82;30.69;101577.56;5060593;28;20037;-84
2023/10/13 13:09:58;;;;;;;0.10;0.10;;;;;;;26.88;30.46;101583.06;5059287;28;20097;-83
2023/10/13 13:12:24;;;;;;;0.10;0.10;;;;;;;26.94;30.36;101576.31;5081021;28;20156;-85
2023/10/13 13:14:54;;;;;;;0.10;0.10;;;;;;;26.83;30.82;101574.75;5069415;28;20035;-87
2023/10/13 13:17:21;;;;;;;0.20;0.20;;;;;;;26.84;30.27;101567.59;5054277;28;20105;-87
2023/10/13 13:20:11;;;;;;;0.20;0.20;;;;;;;26.90;30.66;101574.94;5055336;28;20097;-90
2023/10/13 13:22:37;;;;;;;0.10;0.10;;;;;;;26.90;30.84;101574.94;5083919;28;20053;-83
2023/10/13 13:25:07;;;;;;;0.17;0.17;;;;;;;26.91;31.29;101562.50;5087429;28;20032;-83
2023/10/13 13:27:32;;;;;;;0.10;0.10;;;;;;;26.91;30.58;101571.31;5090605;28;20027;-84
2023/10/13 13:29:58;;;;;;;0.20;0.20;;;;;;;26.85;30.58;101564.00;5057590;28;20423;-84
2023/10/13 13:32:23;;;;;;;0.10;0.10;;;;;;;26.92;30.41;101569.47;5050658;28;20035;-84
2023/10/13 13:35:04;;;;;;;0.20;0.20;;;;;;;26.87;29.90;101557.53;5050238;28;20345;-84
2023/10/13 13:37:30;;;;;;;0.20;0.20;;;;;;;26.90;30.08;101564.31;5060192;28;20024;-84
2023/10/13 13:39:56;;;;;;;0.15;0.15;;;;;;;26.88;30.63;101550.38;5073711;28;20406;-84
2023/10/13 13:42:22;;;;;;;0.20;0.20;;;;;;;26.93;30.41;101553.38;5072800;28;20527;-84
2023/10/13 13:44:47;;;;;;;0.10;0.10;;;;;;;26.96;30.43;101563.69;5069887;28;20039;-84
2023/10/13 13:47:13;;;;;;;0.20;0.20;;;;;;;26.98;29.89;101566.19;5053444;28;20127;-83
2023/10/13 13:49:40;;;;;;;0.20;0.20;;;;;;;26.90;30.85;101559.03;5053120;28;20479;-84
2023/10/13 13:52:09;;;;;;;0.20;0.20;;;;;;;26.92;30.30;101567.66;5073036;28;20078;-84
2023/10/13 13:54:35;;;;;;;0.20;0.20;;;;;;;26.90;30.73;101552.88;5071836;28;20032;-89
2023/10/13 13:57:00;;;;;;;0.10;0.10;;;;;;;26.99;30.88;101563.38;5053830;28;20032;-91
2023/10/13 13:59:26;;;;;;;0.20;0.20;;;;;;;27.01;31.37;101566.69;5070645;28;20509;-87
2023/10/13 14:01:52;;;;;;;0.10;0.10;;;;;;;27.02;31.48;101562.22;5036726;28;20024;-94
2023/10/13 14:04:18;;;;;;;0.20;0.20;;;;;;;26.97;30.73;101564.53;5036634;28;20024;-90
2023/10/13 14:06:44;;;;;;;0.10;0.10;;;;;;;26.96;30.55;101558.41;5053755;28;20056;-89
2023/10/13 14:09:32;;;;;;;0.20;0.20;;;;;;;26.92;30.69;101558.84;5070778;28;20028;-88
2023/10/13 14:14:55;;;;;;;0.20;0.20;;;;;;;26.91;30.98;101559.84;5055903;28;20124;-84
2023/10/13 14:17:26;;;;;;;0.20;0.20;;;;;;;26.92;31.33;101554.38;5070787;28;20035;-85
2023/10/13 14:19:51;;;;;;;0.20;0.20;;;;;;;27.20;31.63;101565.66;5053191;28;20024;-85
2023/10/13 14:22:17;;;;;;;0.20;0.20;;;;;;;27.18;31.00;101554.34;5052068;28;20098;-86
2023/10/13 14:24:51;;;;;;;0.20;0.20;;;;;;;27.42;31.16;101537.63;5068802;28;20024;-85
2023/10/13 14:27:22;;;;;;;0.20;0.20;;;;;;;27.63;31.36;101564.59;5052789;28;20555;-85
2023/10/13 14:29:52;;;;;;;0.20;0.20;;;;;;;27.51;31.29;101557.91;5036736;28;20036;-87
2023/10/13 14:32:19;;;;;;;0.20;0.20;;;;;;;27.18;32.35;101558.84;5068723;28;20056;-85
2023/10/13 14:34:54;;;;;;;0.10;0.10;;;;;;;26.94;34.48;101563.03;5052977;28;20043;-85
2023/10/13 14:37:26;;;;;;;0.10;0.10;;;;;;;26.78;34.69;101549.69;5070851;28;20501;-84
2023/10/13 14:39:56;;;;;;;0.10;0.10;;;;;;;26.77;35.36;101569.25;5053383;28;20387;-85
2023/10/13 14:42:25;;;;;;;0.10;0.10;;;;;;;26.40;35.59;101538.50;5053135;28;20025;-84
2023/10/13 14:44:55;;;;;;;0.20;0.20;;;;;;;26.37;35.50;101545.94;5036720;28;20024;-86
2023/10/13 14:47:29;;;;;;;0.20;0.20;;;;;;;26.41;35.39;101558.75;5069779;28;20547;-86
2023/10/13 14:49:55;;;;;;;0.20;0.20;;;;;;;26.39;35.80;101555.41;5036180;28;20051;-85
2023/10/13 14:52:22;;;;;;;0.10;0.10;;;;;;;26.39;36.91;101570.50;5053462;28;20470;-85
2023/10/13 14:54:50;;;;;;;0.20;0.20;;;;;;;26.32;37.24;101564.94;5052726;28;20068;-91
2023/10/13 14:57:16;;;;;;;0.20;0.20;;;;;;;26.22;37.01;101565.03;5053221;28;20028;-84